Time;durP1;ratioP1;P1;durP2;ratioP2;P2;SDS_P1;SDS_P2;PMS_P1;PMS_P2;Temp;Humidity;BMP_temperature;BMP_pressure;BME280_temperature;BME280_humidity;BME280_pressure;Samples;Min_cycle;Max_cycle;Signal;HPM_P1;HPM_P2
2023/07/16 00:00:50;;;;;;;5.65;2.50;;;;;;;;;;4999468;28;20100;-68
2023/07/16 00:03:15;;;;;;;3.85;2.60;;;;;;;;;;5000085;28;20045;-68
2023/07/16 00:05:41;;;;;;;2.72;2.35;;;;;;;;;;5002396;28;20049;-69
2023/07/16 00:08:06;;;;;;;2.03;1.90;;;;;;;;;;5018094;28;20270;-69
2023/07/16 00:10:36;;;;;;;4.38;2.63;;;;;;;;;;5000180;28;20041;-69
2023/07/16 00:13:02;;;;;;;3.72;2.65;;;;;;;;;;4999569;28;20038;-69
2023/07/16 00:15:28;;;;;;;2.83;2.53;;;;;;;;;;5001136;28;20060;-70
2023/07/16 00:17:54;;;;;;;7.63;2.60;;;;;;;;;;4999661;28;20045;-70
2023/07/16 00:20:20;;;;;;;3.58;2.38;;;;;;;;;;4999448;28;20392;-70
2023/07/16 00:22:45;;;;;;;2.75;2.55;;;;;;;;;;5003720;28;20597;-70
2023/07/16 00:25:11;;;;;;;9.00;2.42;;;;;;;;;;5005856;28;20045;-71
2023/07/16 00:27:36;;;;;;;3.00;2.47;;;;;;;;;;5001468;28;20046;-70
2023/07/16 00:30:03;;;;;;;5.45;2.30;;;;;;;;;;5001860;28;20045;-69
2023/07/16 00:32:28;;;;;;;3.50;2.53;;;;;;;;;;5002895;28;20045;-70
2023/07/16 00:34:54;;;;;;;3.75;2.60;;;;;;;;;;5003383;28;20053;-68
2023/07/16 00:37:19;;;;;;;2.97;2.50;;;;;;;;;;5001147;28;20068;-69
2023/07/16 00:39:44;;;;;;;8.77;2.53;;;;;;;;;;5001418;28;20048;-72
2023/07/16 00:42:10;;;;;;;5.72;2.80;;;;;;;;;;5002666;28;20479;-67
2023/07/16 00:44:35;;;;;;;3.05;2.70;;;;;;;;;;5010298;28;20080;-71
2023/07/16 00:47:02;;;;;;;3.72;2.60;;;;;;;;;;5003368;28;20053;-69
2023/07/16 00:49:29;;;;;;;3.13;2.70;;;;;;;;;;5000443;28;20042;-69
2023/07/16 00:51:54;;;;;;;3.03;2.72;;;;;;;;;;5002813;28;20038;-71
2023/07/16 00:54:20;;;;;;;4.68;2.63;;;;;;;;;;5001468;28;20465;-69
2023/07/16 00:56:46;;;;;;;3.45;2.33;;;;;;;;;;5001650;28;20046;-70
2023/07/16 00:59:11;;;;;;;4.88;2.40;;;;;;;;;;5002553;28;20495;-71
2023/07/16 01:01:39;;;;;;;2.50;2.30;;;;;;;;;;5009441;28;20058;-69
2023/07/16 01:04:04;;;;;;;2.97;2.53;;;;;;;;;;5002602;28;20041;-71
2023/07/16 01:06:36;;;;;;;3.17;2.60;;;;;;;;;;5002649;28;20371;-71
2023/07/16 01:09:12;;;;;;;3.00;2.45;;;;;;;;;;5001458;28;20038;-71
2023/07/16 01:11:40;;;;;;;3.72;2.72;;;;;;;;;;5009260;28;20129;-69
2023/07/16 01:14:07;;;;;;;4.00;2.60;;;;;;;;;;5008891;28;20141;-71
2023/07/16 01:16:33;;;;;;;5.25;2.53;;;;;;;;;;5001570;28;20060;-71
2023/07/16 01:18:59;;;;;;;5.57;2.50;;;;;;;;;;5001028;28;20066;-69
2023/07/16 01:21:30;;;;;;;4.93;2.60;;;;;;;;;;5000147;28;20507;-68
2023/07/16 01:23:56;;;;;;;10.50;2.90;;;;;;;;;;5009061;28;20141;-70
2023/07/16 01:26:30;;;;;;;2.70;2.47;;;;;;;;;;5000450;28;20045;-69
2023/07/16 01:28:55;;;;;;;3.95;2.70;;;;;;;;;;5002076;28;20045;-70
2023/07/16 01:31:22;;;;;;;2.47;2.28;;;;;;;;;;5007234;28;20049;-71
2023/07/16 01:33:50;;;;;;;2.63;2.42;;;;;;;;;;5001124;28;21069;-69
2023/07/16 01:36:17;;;;;;;9.30;2.75;;;;;;;;;;5000218;28;20088;-72
2023/07/16 01:38:43;;;;;;;7.70;2.70;;;;;;;;;;5000166;28;20073;-70
2023/07/16 01:41:08;;;;;;;4.00;2.95;;;;;;;;;;5005326;28;20084;-70
2023/07/16 01:43:34;;;;;;;4.35;2.90;;;;;;;;;;5000286;28;20058;-71
2023/07/16 01:45:59;;;;;;;4.22;2.90;;;;;;;;;;5002065;28;20788;-71
2023/07/16 01:48:30;;;;;;;3.45;2.95;;;;;;;;;;5001284;28;20042;-70
2023/07/16 01:50:56;;;;;;;6.25;3.00;;;;;;;;;;5002022;28;20052;-71
2023/07/16 01:53:22;;;;;;;7.05;3.45;;;;;;;;;;5002516;28;20042;-71
2023/07/16 01:55:47;;;;;;;7.25;3.10;;;;;;;;;;5007646;28;20071;-71
2023/07/16 01:58:13;;;;;;;4.55;2.42;;;;;;;;;;4996889;28;20069;-70
2023/07/16 02:00:39;;;;;;;5.38;3.15;;;;;;;;;;5004120;28;20041;-70
2023/07/16 02:03:04;;;;;;;4.28;2.95;;;;;;;;;;5011418;28;20041;-71
2023/07/16 02:05:31;;;;;;;5.57;2.67;;;;;;;;;;5017612;28;20037;-70
2023/07/16 02:07:56;;;;;;;2.85;2.60;;;;;;;;;;5006241;28;20111;-69
2023/07/16 02:10:22;;;;;;;4.20;2.80;;;;;;;;;;5015537;28;20045;-69
2023/07/16 02:12:47;;;;;;;4.88;3.38;;;;;;;;;;5010027;28;20057;-70
2023/07/16 02:15:13;;;;;;;4.78;2.90;;;;;;;;;;5000593;28;20065;-71
2023/07/16 02:17:41;;;;;;;4.35;3.60;;;;;;;;;;5011749;28;20071;-70
2023/07/16 02:20:10;;;;;;;4.95;3.13;;;;;;;;;;5003698;28;20045;-70
2023/07/16 02:22:36;;;;;;;3.78;2.78;;;;;;;;;;5001304;28;20053;-69
2023/07/16 02:25:02;;;;;;;4.30;3.47;;;;;;;;;;5000157;28;20136;-71
2023/07/16 02:27:28;;;;;;;5.13;3.10;;;;;;;;;;5007913;28;20160;-70
2023/07/16 02:29:53;;;;;;;4.47;3.17;;;;;;;;;;5004129;28;20192;-70
2023/07/16 02:32:18;;;;;;;5.53;3.17;;;;;;;;;;4999451;28;20104;-69
2023/07/16 02:34:44;;;;;;;3.95;3.28;;;;;;;;;;4999738;28;20045;-72
2023/07/16 02:37:09;;;;;;;7.00;3.47;;;;;;;;;;5001132;28;20049;-70
2023/07/16 02:39:35;;;;;;;3.65;3.00;;;;;;;;;;5000434;28;20057;-67
2023/07/16 02:42:00;;;;;;;5.68;3.58;;;;;;;;;;5001118;28;20037;-70
2023/07/16 02:44:26;;;;;;;3.42;3.03;;;;;;;;;;4999027;28;20046;-70
2023/07/16 02:46:51;;;;;;;6.47;3.38;;;;;;;;;;5001137;28;20041;-70
2023/07/16 02:49:16;;;;;;;4.32;3.10;;;;;;;;;;5007254;28;20049;-69
2023/07/16 02:51:42;;;;;;;5.32;3.50;;;;;;;;;;4999774;28;20049;-69
2023/07/16 02:54:08;;;;;;;4.13;3.22;;;;;;;;;;4999007;28;20442;-70
2023/07/16 02:56:33;;;;;;;3.92;3.40;;;;;;;;;;5000286;28;20049;-69
2023/07/16 02:58:59;;;;;;;4.55;3.38;;;;;;;;;;5006404;28;20050;-69
2023/07/16 03:01:25;;;;;;;6.70;3.13;;;;;;;;;;5005219;28;20626;-69
2023/07/16 03:03:51;;;;;;;3.78;3.30;;;;;;;;;;4999230;28;20460;-69
2023/07/16 03:06:16;;;;;;;4.20;3.40;;;;;;;;;;4999951;28;20050;-70
2023/07/16 03:08:42;;;;;;;5.07;4.13;;;;;;;;;;5000515;28;20042;-69
2023/07/16 03:11:07;;;;;;;4.03;3.20;;;;;;;;;;4998311;28;20048;-70
2023/07/16 03:13:34;;;;;;;5.43;3.75;;;;;;;;;;4999450;28;20085;-70
2023/07/16 03:15:59;;;;;;;4.53;3.28;;;;;;;;;;5000295;28;20069;-68
2023/07/16 03:18:29;;;;;;;6.40;3.33;;;;;;;;;;4998775;28;20490;-69
2023/07/16 03:20:56;;;;;;;6.72;3.30;;;;;;;;;;5004713;28;20124;-70
2023/07/16 03:23:22;;;;;;;5.03;3.08;;;;;;;;;;4998793;28;20042;-70
2023/07/16 03:25:48;;;;;;;3.75;3.30;;;;;;;;;;4998616;28;20044;-69
2023/07/16 03:28:13;;;;;;;4.15;3.00;;;;;;;;;;4998078;28;20053;-69
2023/07/16 03:30:39;;;;;;;5.30;3.35;;;;;;;;;;4998105;28;20081;-70
2023/07/16 03:33:05;;;;;;;3.65;3.10;;;;;;;;;;5015851;28;20152;-70
2023/07/16 03:35:30;;;;;;;4.90;2.97;;;;;;;;;;5013029;28;20060;-69
2023/07/16 03:37:56;;;;;;;3.65;3.25;;;;;;;;;;4998758;28;20141;-71
2023/07/16 03:40:26;;;;;;;3.72;3.17;;;;;;;;;;4998601;28;20076;-71
2023/07/16 03:42:51;;;;;;;6.05;2.92;;;;;;;;;;4999815;28;20442;-71
2023/07/16 03:45:17;;;;;;;4.68;3.08;;;;;;;;;;5000087;28;20055;-75
2023/07/16 03:47:43;;;;;;;4.10;2.90;;;;;;;;;;4999122;28;20040;-69
2023/07/16 03:50:08;;;;;;;4.40;3.25;;;;;;;;;;4998235;28;20041;-69
2023/07/16 03:52:34;;;;;;;3.45;3.08;;;;;;;;;;4998845;28;20059;-70
2023/07/16 03:55:00;;;;;;;5.63;3.05;;;;;;;;;;4998143;28;20042;-71
2023/07/16 03:57:28;;;;;;;5.05;3.30;;;;;;;;;;5003247;28;20092;-69
2023/07/16 03:59:53;;;;;;;3.70;3.25;;;;;;;;;;5002066;28;20460;-70
2023/07/16 04:02:19;;;;;;;3.75;3.08;;;;;;;;;;5002500;28;20414;-70
2023/07/16 04:04:44;;;;;;;4.78;3.15;;;;;;;;;;5006167;28;20490;-70
2023/07/16 04:07:10;;;;;;;4.72;3.60;;;;;;;;;;5022980;28;20398;-71
2023/07/16 04:09:39;;;;;;;5.40;3.65;;;;;;;;;;5002220;28;20886;-71
2023/07/16 04:12:06;;;;;;;8.95;3.60;;;;;;;;;;5003571;28;20129;-71
2023/07/16 04:14:31;;;;;;;5.00;3.92;;;;;;;;;;5003599;28;20108;-72
2023/07/16 04:16:57;;;;;;;4.25;3.75;;;;;;;;;;5003163;28;20041;-71
2023/07/16 04:19:23;;;;;;;4.70;3.67;;;;;;;;;;5003854;28;20053;-70
2023/07/16 04:21:48;;;;;;;7.97;4.05;;;;;;;;;;5020838;28;20061;-71
2023/07/16 04:24:13;;;;;;;4.50;3.28;;;;;;;;;;5009091;28;20037;-71
2023/07/16 04:26:39;;;;;;;4.25;3.00;;;;;;;;;;5003982;28;20045;-71
2023/07/16 04:29:05;;;;;;;5.90;2.92;;;;;;;;;;5013115;28;20045;-71
2023/07/16 04:31:30;;;;;;;3.60;2.53;;;;;;;;;;5011737;28;20053;-70
2023/07/16 04:33:55;;;;;;;3.47;2.58;;;;;;;;;;5004264;28;20042;-70
2023/07/16 04:36:21;;;;;;;4.05;2.72;;;;;;;;;;5012411;28;20165;-71
2023/07/16 04:38:46;;;;;;;4.65;2.85;;;;;;;;;;5009670;28;20064;-71
2023/07/16 04:41:12;;;;;;;4.38;2.45;;;;;;;;;;5008120;28;20045;-70
2023/07/16 04:43:38;;;;;;;2.75;2.20;;;;;;;;;;5013055;28;20468;-70
2023/07/16 04:46:04;;;;;;;2.95;2.20;;;;;;;;;;5006354;28;20046;-70
2023/07/16 04:48:29;;;;;;;3.13;2.40;;;;;;;;;;5004107;28;20046;-71
2023/07/16 04:50:55;;;;;;;3.80;2.08;;;;;;;;;;5012912;28;20114;-70
2023/07/16 04:53:22;;;;;;;3.53;2.17;;;;;;;;;;5012032;28;20049;-70
2023/07/16 04:55:47;;;;;;;2.33;2.13;;;;;;;;;;5011793;28;20125;-70
2023/07/16 04:58:12;;;;;;;2.22;2.03;;;;;;;;;;5009974;28;20195;-70
2023/07/16 05:00:38;;;;;;;3.15;1.92;;;;;;;;;;5011244;28;20249;-70
2023/07/16 05:03:05;;;;;;;4.72;2.65;;;;;;;;;;5012250;28;20094;-70
2023/07/16 05:05:30;;;;;;;5.05;2.60;;;;;;;;;;5014078;28;20046;-70
2023/07/16 05:07:56;;;;;;;4.00;2.88;;;;;;;;;;5012150;28;20687;-70
2023/07/16 05:10:22;;;;;;;11.80;4.05;;;;;;;;;;5013707;28;20080;-69
2023/07/16 05:12:47;;;;;;;6.40;3.25;;;;;;;;;;5003013;28;20045;-70
2023/07/16 05:15:13;;;;;;;5.22;3.00;;;;;;;;;;4998383;28;20096;-69
2023/07/16 05:17:38;;;;;;;5.40;3.35;;;;;;;;;;4999900;28;20137;-68
2023/07/16 05:20:05;;;;;;;8.65;3.40;;;;;;;;;;4999629;28;20048;-69
2023/07/16 05:22:30;;;;;;;4.38;3.10;;;;;;;;;;5000005;28;20053;-69
2023/07/16 05:24:55;;;;;;;2.90;2.15;;;;;;;;;;5001035;28;20053;-69
2023/07/16 05:27:21;;;;;;;2.80;2.50;;;;;;;;;;4999935;28;20057;-70
2023/07/16 05:29:48;;;;;;;5.63;2.97;;;;;;;;;;5000251;28;20045;-69
2023/07/16 05:32:13;;;;;;;5.03;2.53;;;;;;;;;;4998985;28;20046;-70
2023/07/16 05:34:39;;;;;;;3.30;2.95;;;;;;;;;;5000989;28;20054;-68
2023/07/16 05:37:04;;;;;;;4.00;2.70;;;;;;;;;;5000153;28;20042;-70
2023/07/16 05:39:30;;;;;;;3.83;2.35;;;;;;;;;;5000998;28;20083;-69
2023/07/16 05:41:55;;;;;;;7.82;3.03;;;;;;;;;;5000484;28;20046;-70
2023/07/16 05:44:21;;;;;;;3.17;2.70;;;;;;;;;;4999160;28;20052;-70
2023/07/16 05:46:46;;;;;;;3.72;3.03;;;;;;;;;;4999986;28;20045;-69
2023/07/16 05:49:13;;;;;;;3.97;3.00;;;;;;;;;;5000097;28;20042;-69
2023/07/16 05:51:39;;;;;;;4.28;3.00;;;;;;;;;;5000244;28;20136;-70
2023/07/16 05:54:04;;;;;;;3.22;2.63;;;;;;;;;;4999064;28;20113;-70
2023/07/16 05:56:30;;;;;;;3.47;2.65;;;;;;;;;;4999885;28;20053;-69
2023/07/16 05:58:56;;;;;;;4.80;2.60;;;;;;;;;;5002010;28;20128;-70
2023/07/16 06:01:22;;;;;;;3.58;1.98;;;;;;;;;;5008160;28;20089;-70
2023/07/16 06:03:47;;;;;;;3.08;1.67;;;;;;;;;;5002730;28;20088;-70
2023/07/16 06:06:12;;;;;;;7.47;1.95;;;;;;;;;;5003975;28;20048;-70
2023/07/16 06:08:38;;;;;;;1.70;1.38;;;;;;;;;;5008474;28;20061;-69
2023/07/16 06:11:03;;;;;;;1.75;1.65;;;;;;;;;;5001799;28;20041;-70
2023/07/16 06:13:29;;;;;;;2.28;1.77;;;;;;;;;;5008143;28;20038;-70
2023/07/16 06:15:55;;;;;;;2.67;2.05;;;;;;;;;;5008434;28;20456;-70
2023/07/16 06:18:20;;;;;;;3.03;2.20;;;;;;;;;;5009492;28;20041;-70
2023/07/16 06:20:46;;;;;;;2.45;1.75;;;;;;;;;;5012753;28;20129;-70
2023/07/16 06:23:12;;;;;;;8.82;1.90;;;;;;;;;;5010795;28;20042;-70
2023/07/16 06:25:40;;;;;;;2.72;2.53;;;;;;;;;;5010991;28;20554;-71
2023/07/16 06:28:06;;;;;;;5.25;2.25;;;;;;;;;;5010241;28;20045;-70
2023/07/16 06:30:32;;;;;;;2.50;2.30;;;;;;;;;;5007724;28;20048;-70
2023/07/16 06:32:59;;;;;;;4.03;2.50;;;;;;;;;;5001551;28;20053;-70
2023/07/16 06:35:24;;;;;;;3.90;2.63;;;;;;;;;;5001130;28;20057;-70
2023/07/16 06:37:50;;;;;;;3.72;2.22;;;;;;;;;;5000323;28;20038;-70
2023/07/16 06:40:15;;;;;;;2.70;2.50;;;;;;;;;;5003937;28;20530;-70
2023/07/16 06:42:41;;;;;;;2.58;2.13;;;;;;;;;;5000734;28;20133;-71
2023/07/16 06:45:07;;;;;;;2.08;1.88;;;;;;;;;;5000947;28;20046;-70
2023/07/16 06:47:32;;;;;;;2.47;2.25;;;;;;;;;;5000904;28;20042;-70
2023/07/16 06:49:58;;;;;;;7.05;2.38;;;;;;;;;;5002966;28;20886;-70
2023/07/16 06:52:27;;;;;;;3.30;2.33;;;;;;;;;;5000023;28;20072;-70
2023/07/16 06:54:54;;;;;;;2.60;2.35;;;;;;;;;;5000932;28;20046;-70
2023/07/16 06:57:19;;;;;;;3.25;2.05;;;;;;;;;;4999704;28;20426;-70
2023/07/16 06:59:45;;;;;;;1.83;1.70;;;;;;;;;;5001306;28;20057;-70
2023/07/16 07:02:12;;;;;;;2.30;2.10;;;;;;;;;;4999243;28;20046;-70
2023/07/16 07:04:37;;;;;;;3.40;1.80;;;;;;;;;;5000783;28;20689;-70
2023/07/16 07:07:03;;;;;;;1.50;1.40;;;;;;;;;;5000828;28;20125;-69
2023/07/16 07:09:29;;;;;;;2.15;1.65;;;;;;;;;;5000420;28;20056;-70
2023/07/16 07:11:54;;;;;;;1.50;1.40;;;;;;;;;;5000868;28;20037;-70
2023/07/16 07:14:20;;;;;;;2.65;1.42;;;;;;;;;;4999944;28;20042;-70
2023/07/16 07:16:45;;;;;;;2.15;1.42;;;;;;;;;;5000736;28;20056;-70
2023/07/16 07:19:10;;;;;;;1.38;1.02;;;;;;;;;;5000606;28;20049;-70
2023/07/16 07:21:36;;;;;;;1.50;1.25;;;;;;;;;;5000266;28;20058;-70
2023/07/16 07:24:02;;;;;;;1.95;1.40;;;;;;;;;;5000592;28;20088;-70
2023/07/16 07:26:27;;;;;;;2.97;1.40;;;;;;;;;;4999404;28;20827;-71
2023/07/16 07:28:53;;;;;;;1.08;1.02;;;;;;;;;;5000242;28;20046;-70
2023/07/16 07:31:18;;;;;;;1.90;1.40;;;;;;;;;;4999577;28;20161;-70
2023/07/16 07:33:43;;;;;;;1.38;1.25;;;;;;;;;;5005861;28;20131;-70
2023/07/16 07:36:09;;;;;;;1.77;1.30;;;;;;;;;;5004269;28;20078;-71
2023/07/16 07:38:34;;;;;;;1.55;1.40;;;;;;;;;;5008246;28;20057;-70
2023/07/16 07:41:00;;;;;;;1.23;1.13;;;;;;;;;;5009474;28;20042;-71
2023/07/16 07:43:26;;;;;;;0.93;0.93;;;;;;;;;;5006822;28;20050;-71
2023/07/16 07:45:52;;;;;;;1.23;1.10;;;;;;;;;;5005963;28;20053;-67
2023/07/16 07:48:18;;;;;;;1.58;1.08;;;;;;;;;;5003761;28;21241;-70
2023/07/16 07:50:43;;;;;;;1.17;1.10;;;;;;;;;;4999191;28;20081;-71
2023/07/16 07:53:09;;;;;;;2.03;1.10;;;;;;;;;;5000236;28;20087;-71
2023/07/16 07:55:37;;;;;;;3.60;0.98;;;;;;;;;;5005876;28;20119;-70
2023/07/16 07:58:03;;;;;;;0.70;0.70;;;;;;;;;;5010578;28;20090;-71
2023/07/16 08:00:28;;;;;;;0.98;0.85;;;;;;;;;;4999673;28;20054;-70
2023/07/16 08:02:54;;;;;;;0.80;0.80;;;;;;;;;;5000037;28;20053;-69
2023/07/16 08:05:19;;;;;;;1.20;1.10;;;;;;;;;;5005674;28;20149;-70
2023/07/16 08:07:45;;;;;;;5.35;1.13;;;;;;;;;;5003787;28;20495;-71
2023/07/16 08:10:10;;;;;;;1.10;1.00;;;;;;;;;;5001247;28;20053;-70
2023/07/16 08:12:36;;;;;;;8.57;1.00;;;;;;;;;;5001297;28;20133;-71
2023/07/16 08:15:01;;;;;;;4.60;1.40;;;;;;;;;;5003677;28;20042;-71
2023/07/16 08:17:27;;;;;;;1.23;1.13;;;;;;;;;;5000451;28;20943;-71
2023/07/16 08:19:52;;;;;;;1.00;0.90;;;;;;;;;;5004156;28;21163;-71
2023/07/16 08:22:18;;;;;;;1.00;0.90;;;;;;;;;;4999986;28;20044;-71
2023/07/16 08:24:43;;;;;;;0.63;0.63;;;;;;;;;;4999588;28;20045;-72
2023/07/16 08:27:08;;;;;;;1.15;0.98;;;;;;;;;;5002018;28;20088;-71
2023/07/16 08:29:36;;;;;;;0.77;0.77;;;;;;;;;;4998534;28;20112;-72
2023/07/16 08:32:03;;;;;;;1.15;0.80;;;;;;;;;;4999997;28;20034;-71
2023/07/16 08:34:28;;;;;;;1.00;0.90;;;;;;;;;;4999155;28;20049;-71
2023/07/16 08:36:53;;;;;;;2.60;1.10;;;;;;;;;;5001187;28;20096;-71
2023/07/16 08:39:20;;;;;;;1.00;0.90;;;;;;;;;;4998502;28;20057;-71
2023/07/16 08:41:46;;;;;;;2.10;1.25;;;;;;;;;;5000383;28;20052;-71
2023/07/16 08:44:12;;;;;;;0.82;0.82;;;;;;;;;;5003066;28;20044;-69
2023/07/16 08:46:38;;;;;;;1.05;0.90;;;;;;;;;;5003765;28;20054;-69
2023/07/16 08:49:06;;;;;;;0.77;0.70;;;;;;;;;;5003193;28;20053;-71
2023/07/16 08:51:32;;;;;;;0.95;0.63;;;;;;;;;;5001029;28;20068;-69
2023/07/16 08:53:57;;;;;;;0.80;0.80;;;;;;;;;;5002641;28;20107;-69
2023/07/16 08:56:23;;;;;;;0.90;0.90;;;;;;;;;;5002280;28;20780;-69
2023/07/16 08:58:49;;;;;;;0.70;0.70;;;;;;;;;;5002751;28;20160;-69
2023/07/16 09:01:17;;;;;;;0.70;0.70;;;;;;;;;;5003137;28;20052;-70
2023/07/16 09:03:42;;;;;;;1.75;0.77;;;;;;;;;;5009873;28;20120;-70
2023/07/16 09:06:08;;;;;;;0.93;0.73;;;;;;;;;;5011280;28;20049;-69
2023/07/16 09:08:33;;;;;;;6.30;1.70;;;;;;;;;;5001887;28;20054;-69
2023/07/16 09:10:59;;;;;;;0.95;0.95;;;;;;;;;;5002361;28;20049;-69
2023/07/16 09:13:28;;;;;;;0.80;0.80;;;;;;;;;;5004276;28;20813;-69
2023/07/16 09:15:57;;;;;;;0.90;0.80;;;;;;;;;;5001070;28;20065;-69
2023/07/16 09:18:27;;;;;;;0.98;0.90;;;;;;;;;;5001695;28;20423;-69
2023/07/16 09:21:02;;;;;;;0.70;0.70;;;;;;;;;;5002568;28;20033;-70
2023/07/16 09:23:30;;;;;;;1.33;0.80;;;;;;;;;;5001551;28;20190;-70
2023/07/16 09:25:55;;;;;;;1.08;0.80;;;;;;;;;;5002529;28;20128;-69
2023/07/16 09:28:22;;;;;;;0.80;0.80;;;;;;;;;;5002098;28;20125;-69
2023/07/16 09:30:48;;;;;;;0.80;0.80;;;;;;;;;;5007813;28;20136;-70
2023/07/16 09:33:16;;;;;;;2.88;1.23;;;;;;;;;;5002656;28;20061;-69
2023/07/16 09:35:42;;;;;;;0.80;0.80;;;;;;;;;;5001818;28;20046;-69
2023/07/16 09:38:12;;;;;;;0.80;0.80;;;;;;;;;;5001786;28;20042;-70
2023/07/16 09:40:38;;;;;;;0.80;0.80;;;;;;;;;;5016039;28;20069;-69
2023/07/16 09:43:05;;;;;;;0.90;0.90;;;;;;;;;;5008158;28;20050;-70
2023/07/16 09:45:31;;;;;;;0.88;0.88;;;;;;;;;;5003768;28;20574;-70
2023/07/16 09:47:56;;;;;;;0.75;0.70;;;;;;;;;;5002414;28;20060;-70
2023/07/16 09:50:28;;;;;;;1.00;1.00;;;;;;;;;;5001078;28;20045;-71
2023/07/16 09:52:55;;;;;;;1.00;1.00;;;;;;;;;;5001538;28;20144;-70
2023/07/16 09:55:22;;;;;;;1.67;0.90;;;;;;;;;;5002045;28;20041;-71
2023/07/16 09:57:49;;;;;;;0.80;0.80;;;;;;;;;;5001188;28;20049;-70
2023/07/16 10:00:16;;;;;;;1.42;0.88;;;;;;;;;;5008134;28;20033;-70
2023/07/16 10:02:44;;;;;;;0.95;0.77;;;;;;;;;;5001670;28;20058;-70
2023/07/16 10:05:13;;;;;;;0.80;0.80;;;;;;;;;;5003178;28;20273;-69
2023/07/16 10:07:39;;;;;;;2.35;1.10;;;;;;;;;;5007352;28;20050;-70
2023/07/16 10:10:08;;;;;;;0.80;0.80;;;;;;;;;;4998631;28;20069;-69
2023/07/16 10:12:35;;;;;;;0.90;0.90;;;;;;;;;;5005822;28;20088;-69
2023/07/16 10:15:04;;;;;;;0.85;0.85;;;;;;;;;;5006803;28;21142;-71
2023/07/16 10:17:31;;;;;;;1.63;1.02;;;;;;;;;;5007886;28;20049;-70
2023/07/16 10:20:07;;;;;;;1.25;1.15;;;;;;;;;;5007373;28;20037;-70
2023/07/16 10:22:35;;;;;;;1.17;1.08;;;;;;;;;;5004194;28;21147;-70
2023/07/16 10:25:02;;;;;;;0.95;0.88;;;;;;;;;;5007455;28;20052;-70
2023/07/16 10:27:28;;;;;;;1.00;1.00;;;;;;;;;;5005692;28;20100;-70
2023/07/16 10:29:54;;;;;;;2.53;1.10;;;;;;;;;;5005696;28;20052;-71
2023/07/16 10:32:21;;;;;;;2.05;1.20;;;;;;;;;;4998649;28;20549;-70
2023/07/16 10:34:46;;;;;;;1.83;0.93;;;;;;;;;;5002899;28;20072;-69
2023/07/16 10:37:12;;;;;;;1.27;1.00;;;;;;;;;;5004457;28;20561;-70
2023/07/16 10:39:46;;;;;;;1.05;0.82;;;;;;;;;;5008893;28;20084;-69
2023/07/16 10:42:12;;;;;;;0.77;0.77;;;;;;;;;;4997970;28;20125;-70
2023/07/16 10:44:39;;;;;;;0.90;0.90;;;;;;;;;;4999485;28;20940;-70
2023/07/16 10:47:05;;;;;;;0.70;0.70;;;;;;;;;;5000275;28;20049;-70
2023/07/16 10:49:30;;;;;;;0.88;0.88;;;;;;;;;;4999439;28;20041;-70
2023/07/16 10:52:00;;;;;;;0.88;0.88;;;;;;;;;;4997003;28;20063;-70
2023/07/16 10:54:25;;;;;;;1.90;1.20;;;;;;;;;;5006577;28;21137;-70
2023/07/16 10:56:51;;;;;;;0.70;0.70;;;;;;;;;;5006042;28;20056;-70
2023/07/16 10:59:17;;;;;;;1.13;0.85;;;;;;;;;;5005483;28;20048;-70
2023/07/16 11:01:43;;;;;;;0.68;0.68;;;;;;;;;;5004927;28;20046;-70
2023/07/16 11:04:09;;;;;;;0.70;0.70;;;;;;;;;;4996390;28;20061;-77
2023/07/16 11:06:35;;;;;;;0.80;0.80;;;;;;;;;;4997322;28;20061;-70
2023/07/16 11:09:11;;;;;;;0.68;0.68;;;;;;;;;;4997423;28;20049;-70
2023/07/16 11:11:37;;;;;;;0.80;0.80;;;;;;;;;;5001558;28;20781;-70
2023/07/16 11:14:07;;;;;;;0.82;0.82;;;;;;;;;;5000323;28;20478;-70
2023/07/16 11:16:36;;;;;;;1.40;0.90;;;;;;;;;;5001604;28;20107;-70
2023/07/16 11:19:05;;;;;;;0.80;0.80;;;;;;;;;;4997742;28;20136;-70
2023/07/16 11:21:33;;;;;;;1.17;0.90;;;;;;;;;;4997571;28;20046;-70
2023/07/16 11:24:15;;;;;;;3.30;3.00;;;;;;;;;;4996060;28;20726;-70
2023/07/16 11:26:50;;;;;;;0.80;0.80;;;;;;;;;;4997934;28;20053;-71
2023/07/16 11:29:16;;;;;;;0.93;0.90;;;;;;;;;;4997212;28;20057;-71
2023/07/16 11:31:41;;;;;;;1.85;1.30;;;;;;;;;;4998330;28;20056;-71
2023/07/16 11:34:07;;;;;;;0.77;0.77;;;;;;;;;;4998102;28;20054;-71
2023/07/16 11:36:33;;;;;;;1.00;1.00;;;;;;;;;;5006457;28;20053;-71
2023/07/16 11:38:59;;;;;;;1.55;0.65;;;;;;;;;;4998478;28;20052;-71
2023/07/16 11:41:24;;;;;;;1.48;0.75;;;;;;;;;;4999818;28;20047;-71
2023/07/16 11:43:50;;;;;;;0.80;0.80;;;;;;;;;;5004288;28;20140;-71
2023/07/16 11:46:16;;;;;;;0.93;0.80;;;;;;;;;;5004427;28;20140;-71
2023/07/16 11:48:42;;;;;;;1.73;0.93;;;;;;;;;;5008308;28;20060;-71
2023/07/16 11:51:08;;;;;;;1.58;0.80;;;;;;;;;;5002528;28;20060;-70
2023/07/16 11:53:33;;;;;;;0.85;0.85;;;;;;;;;;4997694;28;20046;-70
2023/07/16 11:55:59;;;;;;;0.68;0.68;;;;;;;;;;4998495;28;20085;-70
2023/07/16 11:58:24;;;;;;;0.80;0.75;;;;;;;;;;5006787;28;20045;-70
2023/07/16 12:00:51;;;;;;;0.80;0.80;;;;;;;;;;4999738;28;20086;-72
2023/07/16 12:03:16;;;;;;;0.98;0.80;;;;;;;;;;5006461;28;20050;-72
2023/07/16 12:05:42;;;;;;;1.17;0.90;;;;;;;;;;4999997;28;20053;-70
2023/07/16 12:08:13;;;;;;;1.90;0.88;;;;;;;;;;5000876;28;20053;-70
2023/07/16 12:10:40;;;;;;;1.10;0.90;;;;;;;;;;5019183;28;20046;-70
2023/07/16 12:13:05;;;;;;;1.92;1.00;;;;;;;;;;4998889;28;20041;-70
2023/07/16 12:15:31;;;;;;;0.90;0.90;;;;;;;;;;5006034;28;20484;-70
2023/07/16 12:17:56;;;;;;;0.70;0.70;;;;;;;;;;5003549;28;20084;-70
2023/07/16 12:20:21;;;;;;;1.27;0.85;;;;;;;;;;5006951;28;20061;-71
2023/07/16 12:22:47;;;;;;;1.10;0.75;;;;;;;;;;5010898;28;20050;-70
2023/07/16 12:25:12;;;;;;;1.23;0.90;;;;;;;;;;5001893;28;20046;-70
2023/07/16 12:27:38;;;;;;;0.93;0.93;;;;;;;;;;5010740;28;20049;-70
2023/07/16 12:30:04;;;;;;;0.88;0.88;;;;;;;;;;5002288;28;20458;-71
2023/07/16 12:32:29;;;;;;;1.40;1.00;;;;;;;;;;5000362;28;20050;-69
2023/07/16 12:34:55;;;;;;;1.10;1.00;;;;;;;;;;5002079;28;20085;-70
2023/07/16 12:37:20;;;;;;;1.15;0.90;;;;;;;;;;5001787;28;20041;-69
2023/07/16 12:39:45;;;;;;;1.10;1.00;;;;;;;;;;5000191;28;20081;-69
2023/07/16 12:42:11;;;;;;;2.17;1.05;;;;;;;;;;5004507;28;20046;-69
2023/07/16 12:44:36;;;;;;;1.10;1.02;;;;;;;;;;5012430;28;20073;-69
2023/07/16 12:47:02;;;;;;;1.35;1.25;;;;;;;;;;5007712;28;20201;-69
2023/07/16 12:49:27;;;;;;;1.20;1.10;;;;;;;;;;5001762;28;20053;-69
2023/07/16 12:51:53;;;;;;;1.20;1.10;;;;;;;;;;5002459;28;20417;-70
2023/07/16 12:54:18;;;;;;;1.10;1.00;;;;;;;;;;5013886;28;20072;-70
2023/07/16 12:56:43;;;;;;;1.75;1.50;;;;;;;;;;5006461;28;20073;-70
2023/07/16 12:59:09;;;;;;;1.20;1.20;;;;;;;;;;4999357;28;20053;-70
2023/07/16 13:01:34;;;;;;;2.25;1.30;;;;;;;;;;5013046;28;20164;-71
2023/07/16 13:04:00;;;;;;;1.48;1.38;;;;;;;;;;5001561;28;20151;-71
2023/07/16 13:06:25;;;;;;;1.50;1.20;;;;;;;;;;4995728;28;20073;-70
2023/07/16 13:08:51;;;;;;;1.40;1.30;;;;;;;;;;5004010;28;20145;-70
2023/07/16 13:11:16;;;;;;;1.70;1.60;;;;;;;;;;4999360;28;20064;-70
2023/07/16 13:13:43;;;;;;;1.30;1.20;;;;;;;;;;5001330;28;20050;-69
2023/07/16 13:16:09;;;;;;;2.65;1.35;;;;;;;;;;5004367;28;20045;-70
2023/07/16 13:18:34;;;;;;;1.55;1.40;;;;;;;;;;4999928;28;20080;-70
2023/07/16 13:21:00;;;;;;;1.13;1.13;;;;;;;;;;5000960;28;20049;-70
2023/07/16 13:23:25;;;;;;;1.40;1.30;;;;;;;;;;5001656;28;20046;-70
2023/07/16 13:25:52;;;;;;;2.92;1.40;;;;;;;;;;5003752;28;20046;-70
2023/07/16 13:28:18;;;;;;;1.17;1.10;;;;;;;;;;4998687;28;20042;-71
2023/07/16 13:30:43;;;;;;;1.60;1.50;;;;;;;;;;5005592;28;20041;-69
2023/07/16 13:33:09;;;;;;;2.38;1.30;;;;;;;;;;5001966;28;20619;-69
2023/07/16 13:35:34;;;;;;;1.48;1.38;;;;;;;;;;5001820;28;20050;-69
2023/07/16 13:38:01;;;;;;;2.22;1.75;;;;;;;;;;5004140;28;20092;-69
2023/07/16 13:40:26;;;;;;;1.20;1.10;;;;;;;;;;5002648;28;20053;-68
2023/07/16 13:42:53;;;;;;;1.45;1.30;;;;;;;;;;5003385;28;20151;-69
2023/07/16 13:45:19;;;;;;;1.42;1.30;;;;;;;;;;5001259;28;20053;-69
2023/07/16 13:47:44;;;;;;;1.33;1.23;;;;;;;;;;4999750;28;20049;-70
2023/07/16 13:50:10;;;;;;;1.20;1.08;;;;;;;;;;4999546;28;20049;-71
2023/07/16 13:52:36;;;;;;;1.35;1.20;;;;;;;;;;4988076;28;20143;-69
2023/07/16 13:55:03;;;;;;;1.08;1.05;;;;;;;;;;5000174;28;20055;-69
2023/07/16 13:57:29;;;;;;;1.02;1.02;;;;;;;;;;5006493;28;20077;-69
2023/07/16 13:59:55;;;;;;;1.40;1.30;;;;;;;;;;4992046;28;20060;-69
2023/07/16 14:02:20;;;;;;;2.13;1.52;;;;;;;;;;5007528;28;20050;-70
2023/07/16 14:04:46;;;;;;;7.22;1.55;;;;;;;;;;5003983;28;20050;-68
2023/07/16 14:07:11;;;;;;;1.50;1.40;;;;;;;;;;5006739;28;20049;-69
2023/07/16 14:09:37;;;;;;;2.08;1.50;;;;;;;;;;5004570;28;20045;-69
2023/07/16 14:12:03;;;;;;;1.42;1.25;;;;;;;;;;5003294;28;20049;-69
2023/07/16 14:14:28;;;;;;;1.60;1.33;;;;;;;;;;5002924;28;20049;-69
2023/07/16 14:16:55;;;;;;;1.60;1.50;;;;;;;;;;4998362;28;20049;-71
2023/07/16 14:19:21;;;;;;;1.60;1.50;;;;;;;;;;5004041;28;20037;-69
2023/07/16 14:21:46;;;;;;;3.63;1.48;;;;;;;;;;5004241;28;20495;-70
2023/07/16 14:24:12;;;;;;;1.25;1.13;;;;;;;;;;4999560;28;20041;-69
2023/07/16 14:26:38;;;;;;;1.40;1.30;;;;;;;;;;4999731;28;20154;-68
2023/07/16 14:29:04;;;;;;;1.75;1.23;;;;;;;;;;4999787;28;20099;-69
2023/07/16 14:31:29;;;;;;;1.90;1.40;;;;;;;;;;5005960;28;20161;-69
2023/07/16 14:33:54;;;;;;;1.48;1.38;;;;;;;;;;4999754;28;20065;-69
2023/07/16 14:36:21;;;;;;;2.65;1.40;;;;;;;;;;4999080;28;20076;-68